createdAt,value
2018-12-07T00:00:17.471Z,4.23
2018-12-07T00:02:46.242Z,4.27
2018-12-07T00:05:14.590Z,4.67
2018-12-07T00:07:43.089Z,5.30
2018-12-07T00:10:11.478Z,5.17
2018-12-07T00:12:39.784Z,4.90
2018-12-07T00:15:08.362Z,4.50
2018-12-07T00:17:36.745Z,5.03
2018-12-07T00:20:06.938Z,4.23
2018-12-07T00:22:35.286Z,4.20
2018-12-07T00:25:04.418Z,3.93
2018-12-07T00:27:32.722Z,4.10
2018-12-07T00:30:01.050Z,3.30
2018-12-07T00:32:29.346Z,4.10
2018-12-07T00:34:57.654Z,3.50
2018-12-07T00:37:25.983Z,4.27
2018-12-07T00:39:54.334Z,3.53
2018-12-07T00:42:22.734Z,3.20
2018-12-07T00:44:51.043Z,3.80
2018-12-07T00:47:20.381Z,3.37
2018-12-07T00:49:48.673Z,3.17
2018-12-07T00:52:16.973Z,3.60
2018-12-07T00:54:45.299Z,3.07
2018-12-07T00:57:13.599Z,3.70
2018-12-07T00:59:41.883Z,4.27
2018-12-07T01:02:10.314Z,4.07
2018-12-07T01:04:38.702Z,4.70
2018-12-07T01:07:07.121Z,3.80
2018-12-07T01:09:35.405Z,4.53
2018-12-07T01:12:03.826Z,4.33
2018-12-07T01:14:32.136Z,4.30
2018-12-07T01:17:00.597Z,4.40
2018-12-07T01:19:28.893Z,3.90
2018-12-07T01:21:57.222Z,4.07
2018-12-07T01:24:25.578Z,4.07
2018-12-07T01:26:53.887Z,4.30
2018-12-07T01:29:22.202Z,3.70
2018-12-07T01:31:50.518Z,3.93
2018-12-07T01:34:18.822Z,3.53
2018-12-07T01:36:47.119Z,4.03
2018-12-07T01:39:15.422Z,3.57
2018-12-07T01:41:43.703Z,3.97
2018-12-07T01:44:11.989Z,4.13
2018-12-07T01:46:40.289Z,2.43
2018-12-07T01:49:08.562Z,2.53
2018-12-07T01:51:36.827Z,2.40
2018-12-07T01:54:05.469Z,2.70
2018-12-07T01:56:33.745Z,2.80
2018-12-07T01:59:02.063Z,2.60
2018-12-07T02:01:30.367Z,2.50
2018-12-07T02:03:58.670Z,2.50
2018-12-07T02:06:26.960Z,2.37
2018-12-07T02:08:55.265Z,2.87
2018-12-07T02:11:23.550Z,3.00
2018-12-07T02:13:51.881Z,2.97
2018-12-07T02:16:20.186Z,2.87
2018-12-07T02:18:48.502Z,2.57
2018-12-07T02:21:16.778Z,3.50
2018-12-07T02:23:45.073Z,2.80
2018-12-07T02:26:13.390Z,3.30
2018-12-07T02:28:41.715Z,2.70
2018-12-07T02:31:10.098Z,2.80
2018-12-07T02:33:38.426Z,2.70
2018-12-07T02:36:06.727Z,2.80
2018-12-07T02:38:35.060Z,2.20
2018-12-07T02:44:03.163Z,2.00
2018-12-07T02:46:31.460Z,2.20
2018-12-07T02:48:59.835Z,1.90
2018-12-07T02:51:28.133Z,2.30
2018-12-07T02:53:56.457Z,2.10
2018-12-07T02:56:24.793Z,1.80
2018-12-07T02:58:53.088Z,1.90
2018-12-07T03:01:21.426Z,1.97
2018-12-07T03:03:49.796Z,1.50
2018-12-07T03:06:18.103Z,1.97
2018-12-07T03:08:46.410Z,2.00
2018-12-07T03:11:14.746Z,2.50
2018-12-07T03:13:43.076Z,2.10
2018-12-07T03:16:11.472Z,2.10
2018-12-07T03:18:39.822Z,2.37
2018-12-07T03:21:08.168Z,3.43
2018-12-07T03:23:36.481Z,2.70
2018-12-07T03:26:04.814Z,2.70
2018-12-07T03:28:33.126Z,2.70
2018-12-07T03:31:01.465Z,3.03
2018-12-07T03:33:29.769Z,3.17
2018-12-07T03:35:58.191Z,3.30
2018-12-07T03:38:26.499Z,3.57
2018-12-07T03:40:54.920Z,4.10
2018-12-07T03:43:23.343Z,3.10
2018-12-07T03:45:51.664Z,3.90
2018-12-07T03:48:19.982Z,3.07
2018-12-07T03:50:48.286Z,2.70
2018-12-07T03:53:16.605Z,2.83
2018-12-07T03:55:44.919Z,3.20
2018-12-07T03:58:13.229Z,2.67
2018-12-07T04:00:41.529Z,2.93
2018-12-07T04:03:09.852Z,2.43
2018-12-07T04:05:38.155Z,1.93
2018-12-07T04:08:06.471Z,2.37
2018-12-07T04:10:34.797Z,2.23
2018-12-07T04:13:03.228Z,3.97
2018-12-07T04:15:31.638Z,2.67
2018-12-07T04:17:59.965Z,2.80
2018-12-07T04:20:28.346Z,3.00
2018-12-07T04:22:56.671Z,2.70
2018-12-07T04:25:24.981Z,4.00
2018-12-07T04:27:53.380Z,4.13
2018-12-07T04:30:25.835Z,3.33
2018-12-07T04:32:54.188Z,3.87
2018-12-07T04:35:22.593Z,4.07
2018-12-07T04:37:50.933Z,3.43
2018-12-07T04:40:19.242Z,3.87
2018-12-07T04:42:47.563Z,4.77
2018-12-07T04:45:16.185Z,4.60
2018-12-07T04:47:44.545Z,5.40
2018-12-07T04:50:19.759Z,3.50
2018-12-07T04:52:48.251Z,4.10
2018-12-07T04:55:16.569Z,3.53
2018-12-07T04:57:44.922Z,3.83
2018-12-07T05:00:13.374Z,2.40
2018-12-07T05:02:41.735Z,2.50
2018-12-07T05:05:11.195Z,1.97
2018-12-07T05:07:39.814Z,2.33
2018-12-07T05:10:08.152Z,2.40
2018-12-07T05:12:36.483Z,2.33
2018-12-07T05:15:05.808Z,2.20
2018-12-07T05:17:35.000Z,4.67
2018-12-07T05:20:04.110Z,2.40
2018-12-07T05:22:32.450Z,2.17
2018-12-07T05:25:00.795Z,2.23
2018-12-07T05:27:29.185Z,2.87
2018-12-07T05:29:57.566Z,2.67
2018-12-07T05:32:25.911Z,3.10
2018-12-07T05:34:54.222Z,2.77
2018-12-07T05:37:22.570Z,3.00
2018-12-07T05:39:50.928Z,3.00
2018-12-07T05:42:19.330Z,3.00
2018-12-07T05:44:47.666Z,3.80
2018-12-07T05:47:16.008Z,3.80
2018-12-07T05:49:44.329Z,3.00
2018-12-07T05:52:12.739Z,3.20
2018-12-07T05:54:41.065Z,3.73
2018-12-07T05:57:09.426Z,2.97
2018-12-07T05:59:37.761Z,3.50
2018-12-07T06:02:06.236Z,3.27
2018-12-07T06:04:34.549Z,2.40
2018-12-07T06:07:05.946Z,2.23
2018-12-07T06:09:44.354Z,2.00
2018-12-07T06:12:12.710Z,1.80
2018-12-07T06:14:41.138Z,1.87
2018-12-07T06:17:09.520Z,1.77
2018-12-07T06:19:37.932Z,1.73
2018-12-07T06:22:07.044Z,1.67
2018-12-07T06:24:35.744Z,1.77
2018-12-07T06:27:04.226Z,2.23
2018-12-07T06:29:32.588Z,1.97
2018-12-07T06:32:01.017Z,1.77
2018-12-07T06:34:29.359Z,1.90
2018-12-07T06:36:57.714Z,2.30
2018-12-07T06:39:26.114Z,2.43
2018-12-07T06:41:54.470Z,1.73
2018-12-07T06:44:23.845Z,1.43
2018-12-07T06:46:52.273Z,2.17
2018-12-07T06:49:20.684Z,1.47
2018-12-07T06:51:55.047Z,1.57
2018-12-07T06:54:29.303Z,1.60
2018-12-07T06:56:57.624Z,1.70
2018-12-07T06:59:25.988Z,1.43
2018-12-07T07:01:59.938Z,1.20
2018-12-07T07:04:28.342Z,1.70
2018-12-07T07:06:56.675Z,2.00
2018-12-07T07:09:25.046Z,1.73
2018-12-07T07:14:52.454Z,2.13
2018-12-07T07:17:20.798Z,1.63
2018-12-07T07:20:07.210Z,2.20
2018-12-07T07:22:51.576Z,3.40
2018-12-07T07:25:23.074Z,1.90
2018-12-07T07:30:54.243Z,1.77
2018-12-07T07:33:22.590Z,2.33
2018-12-07T07:35:54.302Z,1.83
2018-12-07T07:38:28.916Z,2.27
2018-12-07T07:41:02.657Z,2.20
2018-12-07T07:43:34.358Z,2.70
2018-12-07T07:46:08.959Z,3.73
2018-12-07T07:48:40.945Z,3.17
2018-12-07T07:54:15.209Z,2.70
2018-12-07T07:56:55.667Z,2.60
2018-12-07T07:59:27.055Z,2.60
2018-12-07T08:02:05.505Z,2.27
2018-12-07T08:07:39.663Z,2.20
2018-12-07T08:13:01.438Z,2.10
2018-12-07T08:18:29.244Z,2.00
2018-12-07T08:21:05.788Z,1.83
2018-12-07T08:26:33.608Z,2.43
2018-12-07T08:29:05.692Z,3.20
2018-12-07T08:31:37.829Z,2.60
2018-12-07T08:34:13.430Z,2.33
2018-12-07T08:36:51.362Z,2.40
2018-12-07T08:39:26.499Z,2.13
2018-12-07T08:42:06.804Z,2.40
2018-12-07T08:44:34.708Z,2.50
2018-12-07T08:50:07.925Z,2.63
2018-12-07T08:52:37.184Z,2.00
2018-12-07T08:55:17.794Z,2.17
2018-12-07T09:06:57.500Z,2.40
2018-12-07T09:09:27.277Z,2.87
2018-12-07T09:12:01.845Z,2.77
2018-12-07T09:14:33.619Z,2.93
2018-12-07T09:17:08.458Z,2.30
2018-12-07T09:19:43.051Z,2.80
2018-12-07T09:22:17.323Z,3.57
2018-12-07T09:24:46.530Z,2.90
2018-12-07T09:27:20.821Z,2.63
2018-12-07T09:29:54.866Z,2.23
2018-12-07T09:32:26.657Z,2.90
2018-12-07T09:35:00.917Z,2.20
2018-12-07T09:37:29.264Z,2.37
2018-12-07T09:40:01.140Z,2.20
2018-12-07T09:45:33.200Z,1.60
2018-12-07T09:48:05.316Z,1.53
2018-12-07T09:53:34.399Z,2.00
2018-12-07T09:59:08.769Z,3.00
2018-12-07T10:01:56.166Z,1.60
2018-12-07T10:04:44.893Z,1.40
2018-12-07T10:07:33.671Z,2.17
2018-12-07T10:10:07.630Z,1.70
2018-12-07T10:12:42.421Z,2.30
2018-12-07T10:18:13.334Z,2.17
2018-12-07T10:20:48.774Z,2.30
2018-12-07T10:23:22.725Z,1.63
2018-12-07T10:25:54.765Z,2.33
2018-12-07T10:30:58.382Z,2.13
2018-12-07T10:33:39.164Z,2.00
2018-12-07T10:36:09.491Z,2.10
2018-12-07T10:38:37.853Z,3.17
2018-12-07T10:41:06.196Z,2.40
2018-12-07T10:43:39.981Z,2.27
2018-12-07T10:52:06.611Z,1.90
2018-12-07T10:54:47.281Z,2.33
2018-12-07T11:00:25.603Z,3.27
2018-12-07T11:03:09.594Z,2.97
2018-12-07T11:08:46.979Z,2.10
2018-12-07T11:11:27.058Z,2.10
2018-12-07T11:14:06.991Z,1.77
2018-12-07T11:16:46.647Z,1.80
2018-12-07T11:19:20.451Z,2.20
2018-12-07T11:21:55.885Z,2.00
2018-12-07T11:24:33.202Z,2.07
2018-12-07T11:27:11.837Z,1.83
2018-12-07T11:29:58.154Z,2.90
2018-12-07T11:32:46.775Z,3.17
2018-12-07T11:35:30.459Z,2.00
2018-12-07T11:38:02.012Z,2.67
2018-12-07T11:40:32.240Z,2.20
2018-12-07T11:43:02.359Z,1.60
2018-12-07T11:45:32.089Z,1.80
2018-12-07T11:48:19.249Z,2.77
2018-12-07T11:50:55.445Z,1.27
2018-12-07T11:53:29.235Z,1.90
2018-12-07T11:59:04.133Z,2.13
2018-12-07T12:01:36.011Z,1.50
2018-12-07T12:04:07.966Z,1.60
2018-12-07T12:06:40.099Z,1.40
2018-12-07T12:09:16.545Z,1.63
2018-12-07T12:11:51.376Z,1.30
2018-12-07T12:14:23.041Z,2.10
2018-12-07T12:16:56.926Z,1.70
2018-12-07T12:19:28.493Z,1.73
2018-12-07T12:22:02.718Z,1.67
2018-12-07T12:24:34.428Z,1.60
2018-12-07T12:27:08.281Z,1.80
2018-12-07T12:29:54.691Z,1.80
2018-12-07T12:32:28.909Z,1.43
2018-12-07T12:35:02.665Z,1.83
2018-12-07T12:37:34.723Z,1.43
2018-12-07T12:43:09.040Z,1.70
2018-12-07T12:45:51.479Z,2.03
2018-12-07T12:48:23.867Z,1.87
2018-12-07T12:50:59.474Z,1.80
2018-12-07T12:53:34.180Z,2.30
2018-12-07T12:56:10.807Z,1.93
2018-12-07T12:58:42.503Z,2.00
2018-12-07T13:01:14.589Z,2.60
2018-12-07T13:03:55.205Z,2.10
2018-12-07T13:06:25.267Z,2.20
2018-12-07T13:08:57.376Z,2.73
2018-12-07T13:11:29.577Z,2.00
2018-12-07T13:13:59.533Z,1.97
2018-12-07T13:16:34.127Z,2.60
2018-12-07T13:19:25.515Z,2.43
2018-12-07T13:21:53.865Z,2.40
2018-12-07T13:24:25.185Z,2.03
2018-12-07T13:29:59.897Z,2.93
2018-12-07T13:32:31.393Z,1.40
2018-12-07T13:35:06.086Z,1.10
2018-12-07T13:37:55.413Z,1.80
2018-12-07T13:40:27.284Z,1.03
2018-12-07T13:43:07.853Z,1.03
2018-12-07T13:45:39.905Z,0.80
2018-12-07T13:48:27.205Z,1.20
2018-12-07T13:50:59.014Z,1.10
2018-12-07T13:53:31.440Z,1.00
2018-12-07T13:56:16.180Z,3.07
2018-12-07T14:01:48.054Z,1.30
2018-12-07T14:04:31.264Z,1.10
2018-12-07T14:07:05.782Z,0.60
2018-12-07T14:09:37.878Z,1.40
2018-12-07T14:15:17.865Z,0.60
2018-12-07T14:17:52.264Z,0.90
2018-12-07T14:20:24.307Z,0.73
2018-12-07T14:22:58.326Z,1.43
2018-12-07T14:25:29.717Z,1.00
2018-12-07T14:28:04.232Z,0.50
2018-12-07T14:30:36.531Z,0.60
2018-12-07T14:33:28.002Z,0.40
2018-12-07T14:39:06.868Z,0.40
2018-12-07T14:41:35.572Z,0.60
2018-12-07T14:44:09.647Z,0.77
2018-12-07T14:46:45.713Z,0.77
2018-12-07T14:52:20.315Z,0.40
2018-12-07T14:57:50.843Z,0.40
2018-12-07T15:00:22.852Z,0.40
2018-12-07T15:02:55.209Z,0.60
2018-12-07T15:05:27.339Z,0.33
2018-12-07T15:07:59.625Z,0.40
2018-12-07T15:13:33.209Z,0.37
2018-12-07T15:16:05.238Z,0.40
2018-12-07T15:18:39.286Z,0.40
2018-12-07T15:21:24.281Z,0.30
2018-12-07T15:23:56.665Z,0.43
2018-12-07T15:29:31.694Z,0.20
2018-12-07T15:32:03.688Z,0.27
2018-12-07T15:34:39.860Z,0.47
2018-12-07T15:37:14.307Z,0.60
2018-12-07T15:45:46.249Z,0.30
2018-12-07T15:48:20.901Z,0.30
2018-12-07T15:51:01.805Z,0.30
2018-12-07T15:53:36.336Z,0.40
2018-12-07T15:56:09.044Z,0.40
2018-12-07T15:58:47.527Z,0.30
2018-12-07T16:01:36.422Z,0.33
2018-12-07T16:04:08.489Z,0.40
2018-12-07T16:06:46.517Z,0.50
2018-12-07T16:09:37.897Z,0.60
2018-12-07T16:12:06.409Z,0.30
2018-12-07T16:14:40.751Z,0.37
2018-12-07T16:17:21.295Z,0.30
2018-12-07T16:22:55.076Z,0.50
2018-12-07T16:28:29.254Z,0.60
2018-12-07T16:31:03.929Z,0.90
2018-12-07T16:36:44.314Z,0.87
2018-12-07T16:39:12.915Z,0.43
2018-12-07T16:41:46.936Z,0.50
2018-12-07T16:44:21.473Z,0.47
2018-12-07T16:49:55.489Z,0.60
2018-12-07T16:52:27.262Z,0.70
2018-12-07T16:57:58.929Z,1.10
2018-12-07T17:03:29.921Z,1.00
2018-12-07T17:06:00.121Z,0.73
2018-12-07T17:08:30.484Z,1.17
2018-12-07T17:11:00.691Z,0.60
2018-12-07T17:13:35.096Z,0.80
2018-12-07T17:16:10.163Z,0.40
2018-12-07T17:18:42.538Z,0.50
2018-12-07T17:24:12.900Z,0.70
2018-12-07T17:29:52.503Z,0.70
2018-12-07T17:32:26.960Z,0.90
2018-12-07T17:35:01.836Z,0.40
2018-12-07T17:37:39.769Z,0.93
2018-12-07T17:40:08.571Z,0.80
2018-12-07T17:42:42.516Z,0.87
2018-12-07T17:45:11.271Z,0.80
2018-12-07T17:47:48.357Z,1.00
2018-12-07T17:50:31.360Z,1.17
2018-12-07T17:53:06.112Z,1.23
2018-12-07T17:55:47.362Z,0.80
2018-12-07T17:58:21.796Z,1.33
2018-12-07T18:00:56.506Z,0.80
2018-12-07T18:03:31.325Z,0.90
2018-12-07T18:06:05.860Z,0.83
2018-12-07T18:08:34.450Z,1.07
2018-12-07T18:11:09.083Z,1.00
2018-12-07T18:13:39.366Z,0.77
2018-12-07T18:19:01.220Z,0.80
2018-12-07T18:21:29.656Z,1.00
2018-12-07T18:24:00.070Z,1.03
2018-12-07T18:29:35.335Z,1.00
2018-12-07T18:32:09.990Z,1.00
2018-12-07T18:34:40.419Z,0.80
2018-12-07T18:37:14.622Z,0.70
2018-12-07T18:42:45.481Z,0.70
2018-12-07T18:48:19.875Z,0.90
2018-12-07T18:50:52.010Z,1.00
2018-12-07T18:53:20.463Z,1.00
2018-12-07T18:55:55.255Z,1.13
2018-12-07T18:58:26.919Z,1.63
2018-12-07T19:00:55.531Z,1.40
2018-12-07T19:06:24.521Z,1.83
2018-12-07T19:08:58.808Z,0.77
2018-12-07T19:11:37.896Z,0.90
2018-12-07T19:14:06.606Z,0.90
2018-12-07T19:19:41.312Z,0.80
2018-12-07T19:22:09.799Z,0.60
2018-12-07T19:24:58.685Z,0.90
2018-12-07T19:30:26.956Z,0.90
2018-12-07T19:32:55.541Z,0.47
2018-12-07T19:35:23.953Z,0.60
2018-12-07T19:43:30.721Z,0.87
2018-12-07T19:46:12.093Z,0.70
2018-12-07T19:51:43.331Z,0.50
2018-12-07T19:54:15.182Z,0.40
2018-12-07T19:59:51.272Z,0.80
2018-12-07T20:11:18.837Z,0.30
2018-12-07T20:19:54.182Z,0.63
2018-12-07T20:22:22.670Z,2.90
2018-12-07T20:27:50.362Z,0.53
2018-12-07T20:30:21.945Z,0.70
2018-12-07T20:32:56.390Z,0.40
2018-12-07T20:35:24.847Z,1.57
2018-12-07T20:43:56.277Z,0.57
2018-12-07T20:46:28.698Z,0.70
2018-12-07T20:49:00.881Z,1.90
2018-12-07T20:51:35.152Z,1.10
2018-12-07T20:54:10.043Z,0.40
2018-12-07T20:56:40.512Z,1.40
2018-12-07T21:02:08.867Z,0.50
2018-12-07T21:04:43.030Z,0.77
2018-12-07T21:07:38.031Z,0.90
2018-12-07T21:11:49.950Z,0.60
2018-12-07T21:14:26.596Z,10.00
2018-12-07T21:17:34.338Z,1.30
2018-12-07T21:23:08.477Z,1.27
2018-12-07T21:25:43.407Z,0.70
2018-12-07T21:31:15.703Z,1.40
2018-12-07T21:33:56.748Z,0.60
2018-12-07T21:36:49.461Z,0.90
2018-12-07T21:39:48.590Z,0.57
2018-12-07T21:44:47.902Z,0.40
2018-12-07T21:47:24.449Z,0.70
2018-12-07T21:52:55.893Z,0.50
2018-12-07T21:55:28.346Z,1.07
2018-12-07T21:58:04.689Z,0.57
2018-12-07T22:00:50.287Z,0.60
2018-12-07T22:03:25.030Z,0.57
2018-12-07T22:05:56.668Z,0.97
2018-12-07T22:11:28.282Z,0.50
2018-12-07T22:14:00.143Z,0.80
2018-12-07T22:16:45.326Z,0.70
2018-12-07T22:19:16.906Z,0.80
2018-12-07T22:21:47.166Z,0.60
2018-12-07T22:24:19.220Z,1.03
2018-12-07T22:26:51.284Z,0.87
2018-12-07T22:29:21.398Z,1.00
2018-12-07T22:31:56.431Z,1.40
2018-12-07T22:34:25.009Z,1.10
2018-12-07T22:36:53.427Z,0.97
2018-12-07T22:42:24.426Z,1.40
2018-12-07T22:44:59.317Z,0.70
2018-12-07T22:47:43.773Z,0.97
2018-12-07T22:50:13.740Z,0.90
2018-12-07T22:52:53.642Z,1.40
2018-12-07T22:55:27.603Z,0.60
2018-12-07T22:58:01.619Z,1.00
2018-12-07T23:00:35.751Z,1.07
2018-12-07T23:03:07.481Z,0.77
2018-12-07T23:05:46.094Z,1.00
2018-12-07T23:08:15.727Z,0.70
2018-12-07T23:10:49.512Z,1.20
2018-12-07T23:13:39.988Z,0.80
2018-12-07T23:16:11.553Z,1.00
2018-12-07T23:18:41.854Z,1.03
2018-12-07T23:21:14.102Z,0.80
2018-12-07T23:23:46.330Z,1.50
2018-12-07T23:26:18.624Z,0.80
2018-12-07T23:28:50.903Z,1.20
2018-12-07T23:31:26.542Z,1.77
2018-12-07T23:34:04.651Z,0.87
2018-12-07T23:36:36.137Z,0.90
2018-12-07T23:39:08.466Z,0.90
2018-12-07T23:47:04.608Z,2.07
2018-12-07T23:49:38.800Z,1.33
2018-12-07T23:52:12.971Z,1.27
2018-12-07T23:54:53.985Z,1.57
2018-12-07T23:57:28.667Z,1.47
